Bluff Springs, Texas
Current Conditions -  °F | °C
As of 10:53 PM on Friday 24 Oct 2014 (Local Time) from KAUS Reporting Station
Clear Clear  
Wind Chill: 63°   Ceiling: Unl
Heat Index: 63°   Visibility: 10mi
Dew Point: 58°   Wind: 0mph
Humidity: 84%   Direction: NA
Pressure: 30.14"   Gusts: NA
Location:  30.1791°N, 97.7294°W
Report Text: KAUS 250353Z 00000KT 10SM CLR 17/14 A3014 RMK AO2 SLP200 T01720144
Loading
Personal Weather Stations






























Interactive Weather Map
Tropical Storm Tracking
New forecast layout! Learn more

10-Day Weather Forecast

Advertisements
Track Severe Weather on mobile